Time;durP1;ratioP1;P1;durP2;ratioP2;P2;SDS_P1;SDS_P2;PMS_P1;PMS_P2;Temp;Humidity;BMP_temperature;BMP_pressure;BME280_temperature;BME280_humidity;BME280_pressure;Samples;Min_cycle;Max_cycle;Signal;HPM_P1;HPM_P2
2023/03/06 00:00:43;;;;;;;10.70;3.33;;;8.80;46.60;;;;;;5086322;28;20461;-86
2023/03/06 00:03:10;;;;;;;5.63;3.80;;;8.80;46.80;;;;;;5065992;28;20563;-86
2023/03/06 00:05:39;;;;;;;6.80;3.80;;;8.80;46.90;;;;;;5080328;28;20477;-86
2023/03/06 00:08:06;;;;;;;8.03;4.37;;;8.80;46.30;;;;;;5095700;28;20546;-85
2023/03/06 00:10:34;;;;;;;8.87;3.90;;;8.60;46.20;;;;;;5088832;28;20446;-85
2023/03/06 00:13:03;;;;;;;6.67;4.10;;;8.70;46.60;;;;;;5109559;28;20473;-86
2023/03/06 00:15:30;;;;;;;6.83;3.73;;;8.70;46.60;;;;;;5059545;28;20450;-86
2023/03/06 00:17:58;;;;;;;5.63;3.67;;;8.80;46.40;;;;;;5061357;28;21202;-86
2023/03/06 00:20:26;;;;;;;7.83;4.30;;;8.90;46.40;;;;;;5078952;27;20445;-86
2023/03/06 00:22:55;;;;;;;5.23;3.97;;;9.00;46.20;;;;;;5094562;27;20933;-86
2023/03/06 00:25:23;;;;;;;8.70;5.10;;;9.10;46.40;;;;;;5089368;27;20541;-86
2023/03/06 00:27:50;;;;;;;8.07;4.37;;;9.10;46.40;;;;;;5081081;27;21241;-86
2023/03/06 00:30:20;;;;;;;8.87;4.73;;;9.10;46.30;;;;;;5068308;27;20534;-85
2023/03/06 00:32:47;;;;;;;7.17;4.23;;;9.00;46.20;;;;;;5085786;27;20473;-86
2023/03/06 00:35:15;;;;;;;6.30;4.07;;;9.00;46.60;;;;;;5099352;27;20450;-86
2023/03/06 00:37:44;;;;;;;8.83;4.90;;;8.90;46.70;;;;;;5071685;27;20494;-85
2023/03/06 00:40:15;;;;;;;11.10;4.40;;;8.90;46.80;;;;;;5083094;27;21061;-86
2023/03/06 00:42:42;;;;;;;7.47;4.87;;;8.90;47.10;;;;;;5070749;27;20502;-87
2023/03/06 00:45:13;;;;;;;6.93;4.30;;;9.00;47.30;;;;;;5096180;27;20813;-85
2023/03/06 00:47:40;;;;;;;7.13;4.90;;;9.10;47.50;;;;;;5092200;27;20443;-85
2023/03/06 00:50:09;;;;;;;7.37;4.10;;;9.10;47.10;;;;;;5072676;27;21295;-86
2023/03/06 00:52:36;;;;;;;8.40;4.47;;;9.10;46.90;;;;;;5074701;27;20450;-85
2023/03/06 00:55:03;;;;;;;7.70;4.33;;;8.90;47.50;;;;;;5095954;27;20455;-85
2023/03/06 00:57:31;;;;;;;8.67;5.13;;;9.00;47.50;;;;;;5068607;27;20819;-84
2023/03/06 00:59:58;;;;;;;9.47;5.20;;;9.10;47.50;;;;;;5065421;28;20450;-86
2023/03/06 01:02:26;;;;;;;11.70;5.07;;;9.10;47.50;;;;;;5057330;27;20478;-84
2023/03/06 01:04:55;;;;;;;11.43;5.23;;;9.10;47.60;;;;;;5086920;27;21187;-85
2023/03/06 01:07:23;;;;;;;9.27;4.37;;;9.10;47.20;;;;;;5068688;27;20449;-85
2023/03/06 01:09:50;;;;;;;11.97;4.03;;;9.00;46.50;;;;;;5068470;27;20923;-86
2023/03/06 01:12:17;;;;;;;6.23;4.00;;;8.90;46.20;;;;;;5103142;27;20474;-84
2023/03/06 01:14:45;;;;;;;4.67;3.30;;;8.80;46.50;;;;;;5067417;27;20481;-86
2023/03/06 01:17:12;;;;;;;7.93;4.60;;;8.80;46.60;;;;;;5094206;27;20461;-85
2023/03/06 01:19:39;;;;;;;7.30;4.10;;;8.60;46.10;;;;;;5077009;27;20441;-86
2023/03/06 01:22:06;;;;;;;8.50;4.77;;;8.50;47.10;;;;;;5080502;27;20462;-86
2023/03/06 01:24:33;;;;;;;6.13;4.07;;;8.60;47.50;;;;;;5069253;27;20529;-86
2023/03/06 01:27:00;;;;;;;7.00;4.47;;;8.70;47.50;;;;;;5080206;27;20435;-86
2023/03/06 01:29:27;;;;;;;8.37;4.50;;;8.70;48.00;;;;;;5084783;27;20954;-86
2023/03/06 01:31:55;;;;;;;7.60;4.40;;;8.80;47.80;;;;;;5092510;27;20542;-86
2023/03/06 01:34:22;;;;;;;8.57;5.73;;;8.80;46.70;;;;;;5094125;27;20443;-86
2023/03/06 01:36:49;;;;;;;9.73;4.70;;;8.60;46.30;;;;;;5092700;27;20446;-86
2023/03/06 01:39:16;;;;;;;6.30;4.33;;;8.70;46.80;;;;;;5085982;27;20465;-86
2023/03/06 01:41:43;;;;;;;8.20;4.03;;;8.50;47.50;;;;;;5066065;27;20457;-85
2023/03/06 01:44:12;;;;;;;5.63;4.23;;;8.40;47.80;;;;;;5094359;27;20451;-84
2023/03/06 01:46:41;;;;;;;7.57;4.07;;;8.60;47.80;;;;;;5100551;27;20447;-86
2023/03/06 01:49:18;;;;;;;6.23;4.37;;;8.80;48.30;;;;;;5075679;27;20455;-84
2023/03/06 01:51:50;;;;;;;8.90;4.30;;;8.80;46.90;;;;;;5075702;27;20473;-85
2023/03/06 01:54:22;;;;;;;7.20;4.40;;;8.70;46.20;;;;;;5092527;27;20500;-86
2023/03/06 01:56:52;;;;;;;10.53;4.63;;;8.70;46.80;;;;;;5083221;27;20457;-86
2023/03/06 01:59:21;;;;;;;7.60;4.00;;;8.60;46.70;;;;;;5087001;27;20442;-86
2023/03/06 02:01:49;;;;;;;8.63;4.70;;;8.50;46.80;;;;;;5056920;27;20479;-86
2023/03/06 02:04:18;;;;;;;9.23;4.90;;;8.40;46.60;;;;;;5079182;27;20542;-86
2023/03/06 02:06:46;;;;;;;6.70;4.20;;;8.10;47.50;;;;;;5088987;27;20442;-85
2023/03/06 02:09:13;;;;;;;6.77;4.27;;;8.00;47.30;;;;;;5074675;27;20481;-85
2023/03/06 02:11:43;;;;;;;6.57;3.70;;;8.10;47.40;;;;;;5077095;27;20480;-86
2023/03/06 02:14:12;;;;;;;5.63;4.50;;;8.00;47.50;;;;;;5094212;27;20954;-85
2023/03/06 02:16:40;;;;;;;9.37;4.97;;;8.10;47.80;;;;;;5067588;27;20519;-86
2023/03/06 02:19:11;;;;;;;7.73;4.20;;;8.20;47.30;;;;;;5068834;27;20816;-86
2023/03/06 02:21:40;;;;;;;5.93;4.10;;;8.20;47.50;;;;;;5083799;27;20561;-85
2023/03/06 02:24:20;;;;;;;9.90;4.37;;;8.30;47.70;;;;;;5060230;28;20451;-85
2023/03/06 02:26:52;;;;;;;6.23;4.40;;;8.40;46.90;;;;;;5078109;28;20982;-86
2023/03/06 02:29:22;;;;;;;9.27;4.37;;;8.40;46.60;;;;;;5081893;27;20453;-85
2023/03/06 02:31:50;;;;;;;8.57;3.77;;;8.40;46.80;;;;;;5074320;27;21100;-84
2023/03/06 02:34:46;;;;;;;8.87;4.77;;;8.50;47.00;;;;;;5061881;27;20534;-85
2023/03/06 02:37:13;;;;;;;5.83;4.30;;;8.40;46.50;;;;;;5061894;27;20535;-86
2023/03/06 02:39:44;;;;;;;4.20;3.67;;;8.40;46.50;;;;;;5056753;27;21050;-86
2023/03/06 02:42:18;;;;;;;6.57;4.23;;;8.50;46.80;;;;;;5076436;27;20464;-86
2023/03/06 02:44:45;;;;;;;8.73;4.00;;;8.60;46.90;;;;;;5064977;27;22045;-85
2023/03/06 02:47:12;;;;;;;7.10;4.07;;;8.60;46.30;;;;;;5084308;27;20597;-85
2023/03/06 02:49:39;;;;;;;11.03;4.53;;;8.60;46.00;;;;;;5074098;27;20446;-85
2023/03/06 02:52:07;;;;;;;6.20;4.07;;;8.60;46.20;;;;;;5060462;27;20466;-86
2023/03/06 02:54:34;;;;;;;7.30;4.00;;;8.60;46.80;;;;;;5065985;27;20447;-85
2023/03/06 02:57:01;;;;;;;5.90;4.47;;;8.70;47.00;;;;;;5061167;27;20442;-86
2023/03/06 02:59:30;;;;;;;5.80;3.50;;;8.70;47.10;;;;;;5093258;27;20442;-86
2023/03/06 03:01:58;;;;;;;10.13;3.80;;;8.70;47.20;;;;;;5081823;27;20519;-85
2023/03/06 03:04:25;;;;;;;6.90;4.07;;;8.70;46.00;;;;;;5080210;27;20454;-85
2023/03/06 03:06:52;;;;;;;6.37;4.43;;;8.80;46.40;;;;;;5074756;27;20503;-85
2023/03/06 03:09:20;;;;;;;9.57;3.93;;;8.70;45.80;;;;;;5057037;27;20533;-86
2023/03/06 03:11:46;;;;;;;7.23;4.10;;;8.70;45.80;;;;;;5059355;27;21969;-85
2023/03/06 03:14:15;;;;;;;12.20;5.13;;;8.70;46.10;;;;;;5069116;27;20537;-86
2023/03/06 03:16:45;;;;;;;6.40;3.93;;;8.60;46.00;;;;;;5091634;27;20445;-85
2023/03/06 03:19:12;;;;;;;6.70;4.20;;;8.50;46.10;;;;;;5094916;27;20494;-85
2023/03/06 03:21:40;;;;;;;6.70;4.60;;;8.50;46.40;;;;;;5073556;27;20478;-85
2023/03/06 03:24:08;;;;;;;6.17;4.60;;;8.40;46.50;;;;;;5079277;27;20451;-86
2023/03/06 03:26:35;;;;;;;8.17;4.50;;;8.50;47.00;;;;;;5068182;27;20438;-85
2023/03/06 03:29:09;;;;;;;7.47;4.50;;;8.60;46.90;;;;;;5060249;27;20920;-85
2023/03/06 03:31:36;;;;;;;7.93;3.80;;;8.60;46.90;;;;;;5063886;27;20455;-86
2023/03/06 03:34:05;;;;;;;8.00;4.40;;;8.60;46.30;;;;;;5073907;27;20540;-86
2023/03/06 03:36:36;;;;;;;9.67;4.50;;;8.60;46.30;;;;;;5057594;27;20450;-86
2023/03/06 03:39:04;;;;;;;9.63;5.67;;;8.60;46.70;;;;;;5089619;27;20466;-86
2023/03/06 03:41:32;;;;;;;9.97;4.57;;;8.60;46.70;;;;;;5074451;27;20454;-86
2023/03/06 03:43:59;;;;;;;6.37;4.17;;;8.60;46.40;;;;;;5079619;27;20452;-84
2023/03/06 03:46:26;;;;;;;8.67;4.87;;;8.60;47.10;;;;;;5059900;28;20889;-85
2023/03/06 03:48:55;;;;;;;8.23;4.90;;;8.70;46.50;;;;;;5059835;28;20451;-86
2023/03/06 03:51:23;;;;;;;7.87;3.87;;;8.60;46.80;;;;;;5091736;28;20889;-86
2023/03/06 03:53:55;;;;;;;6.43;4.13;;;8.60;46.80;;;;;;5082422;27;20450;-85
2023/03/06 03:56:24;;;;;;;9.13;5.57;;;8.40;46.70;;;;;;5070971;27;20493;-86
2023/03/06 03:58:58;;;;;;;9.57;5.30;;;8.40;46.80;;;;;;5108526;27;20593;-86
2023/03/06 04:01:28;;;;;;;5.63;4.63;;;8.50;47.10;;;;;;5086757;28;20497;-85
2023/03/06 04:03:55;;;;;;;9.17;4.60;;;8.60;47.40;;;;;;5095748;27;20442;-86
2023/03/06 04:06:24;;;;;;;7.60;4.87;;;8.60;47.20;;;;;;5096008;27;20470;-86
2023/03/06 04:08:51;;;;;;;12.17;5.47;;;8.70;46.90;;;;;;5067731;27;20438;-86
2023/03/06 04:11:18;;;;;;;15.07;5.40;;;8.70;46.60;;;;;;5070686;27;20988;-85
2023/03/06 04:13:45;;;;;;;72.50;26.33;;;8.70;47.40;;;;;;5076687;27;20450;-86
2023/03/06 04:16:12;;;;;;;45.23;16.30;;;8.60;47.60;;;;;;5076430;27;20597;-86
2023/03/06 04:18:40;;;;;;;42.97;15.73;;;8.60;47.60;;;;;;5076463;27;20455;-86
2023/03/06 04:21:08;;;;;;;29.23;13.87;;;8.50;48.10;;;;;;5078233;27;20442;-85
2023/03/06 04:23:36;;;;;;;35.23;16.10;;;8.60;48.00;;;;;;5071903;27;20470;-86
2023/03/06 04:26:07;;;;;;;28.60;13.03;;;8.60;47.50;;;;;;5070136;27;20512;-86
2023/03/06 04:28:34;;;;;;;30.33;14.03;;;8.70;47.50;;;;;;5077095;27;20447;-85
2023/03/06 04:31:01;;;;;;;38.93;16.20;;;8.70;47.60;;;;;;5080805;27;20475;-86
2023/03/06 04:33:29;;;;;;;30.40;14.47;;;8.60;47.20;;;;;;5069514;27;20470;-86
2023/03/06 04:35:56;;;;;;;68.00;27.50;;;8.60;47.50;;;;;;5075267;27;20477;-86
2023/03/06 04:38:27;;;;;;;65.77;25.93;;;8.70;47.40;;;;;;5070645;27;20476;-85
2023/03/06 04:40:55;;;;;;;38.07;16.43;;;8.70;47.40;;;;;;5085077;27;20975;-86
2023/03/06 04:43:22;;;;;;;61.50;25.40;;;8.70;47.20;;;;;;5085143;27;20475;-85
2023/03/06 04:45:49;;;;;;;78.00;28.87;;;8.80;47.40;;;;;;5083098;27;20997;-86
2023/03/06 04:48:18;;;;;;;34.40;15.73;;;8.70;47.40;;;;;;5094917;27;20478;-86
2023/03/06 04:50:45;;;;;;;16.13;9.33;;;8.70;47.90;;;;;;5091922;27;20492;-86
2023/03/06 04:53:13;;;;;;;16.57;9.40;;;8.50;47.20;;;;;;5087332;27;20474;-85
2023/03/06 04:55:40;;;;;;;18.77;8.40;;;8.40;47.40;;;;;;5081471;27;20499;-86
2023/03/06 04:58:09;;;;;;;16.00;9.00;;;8.20;48.00;;;;;;5084334;27;20503;-86
2023/03/06 05:00:36;;;;;;;10.70;6.07;;;8.10;48.00;;;;;;5075923;27;20459;-85
2023/03/06 05:03:03;;;;;;;15.30;5.90;;;8.10;48.60;;;;;;5078310;27;20506;-85
2023/03/06 05:05:30;;;;;;;13.97;6.57;;;8.20;49.70;;;;;;5064403;27;20483;-86
2023/03/06 05:07:57;;;;;;;9.33;5.23;;;8.30;49.20;;;;;;5095093;27;20443;-86
2023/03/06 05:10:24;;;;;;;66.80;23.07;;;8.40;49.20;;;;;;5079372;27;20482;-86
2023/03/06 05:12:51;;;;;;;38.67;15.57;;;8.20;48.90;;;;;;5082172;27;20477;-85
2023/03/06 05:15:19;;;;;;;32.00;13.33;;;8.20;49.30;;;;;;5095665;27;20483;-84
2023/03/06 05:17:47;;;;;;;8.80;5.87;;;8.30;49.30;;;;;;5102595;27;20462;-85
2023/03/06 05:20:15;;;;;;;13.50;7.80;;;8.20;49.20;;;;;;5085171;27;20548;-84
2023/03/06 05:22:42;;;;;;;14.77;6.83;;;8.20;49.50;;;;;;5072052;27;20469;-83
2023/03/06 05:25:10;;;;;;;10.80;5.87;;;8.30;49.40;;;;;;5080535;27;20442;-83
2023/03/06 05:27:38;;;;;;;11.70;6.23;;;8.10;49.40;;;;;;5087883;27;20463;-83
2023/03/06 05:30:06;;;;;;;14.03;9.73;;;8.10;49.50;;;;;;5093911;27;20473;-84
2023/03/06 05:32:35;;;;;;;17.93;9.83;;;8.30;49.60;;;;;;5097124;27;20570;-83
2023/03/06 05:35:02;;;;;;;17.60;8.70;;;8.40;49.60;;;;;;5089791;27;20973;-83
2023/03/06 05:37:29;;;;;;;14.50;8.23;;;8.20;49.40;;;;;;5056337;27;20451;-84
2023/03/06 05:39:56;;;;;;;13.53;8.60;;;8.00;49.70;;;;;;5062679;27;21496;-85
2023/03/06 05:42:23;;;;;;;10.43;6.73;;;8.20;50.00;;;;;;5072331;27;20861;-84
2023/03/06 05:44:50;;;;;;;14.27;7.87;;;8.30;49.60;;;;;;5074678;27;20447;-85
2023/03/06 05:47:17;;;;;;;14.53;7.30;;;8.40;49.90;;;;;;5080971;27;20793;-84
2023/03/06 05:49:45;;;;;;;9.60;7.13;;;8.30;49.50;;;;;;5080465;27;20456;-83
2023/03/06 05:52:13;;;;;;;10.60;6.70;;;8.40;50.20;;;;;;5088415;27;20474;-84
2023/03/06 05:54:40;;;;;;;14.43;7.10;;;8.50;49.10;;;;;;5080563;27;20434;-84
2023/03/06 05:57:07;;;;;;;10.10;6.00;;;8.50;48.80;;;;;;5072477;27;20616;-84
2023/03/06 05:59:34;;;;;;;14.97;8.13;;;8.50;48.80;;;;;;5073465;27;20458;-83
2023/03/06 06:02:04;;;;;;;15.77;7.60;;;8.50;49.00;;;;;;5070599;27;21077;-84
2023/03/06 06:04:31;;;;;;;13.23;8.43;;;8.20;49.20;;;;;;5097919;27;20549;-84
2023/03/06 06:07:00;;;;;;;18.97;9.57;;;8.20;49.50;;;;;;5067665;27;20472;-84
2023/03/06 06:09:28;;;;;;;15.70;8.93;;;8.20;49.40;;;;;;5086973;27;20978;-84
2023/03/06 06:11:58;;;;;;;11.63;7.50;;;8.00;49.70;;;;;;5063149;27;21170;-85
2023/03/06 06:14:25;;;;;;;12.20;8.27;;;7.80;49.70;;;;;;5073641;27;20959;-83
2023/03/06 06:16:52;;;;;;;11.80;7.23;;;7.70;50.60;;;;;;5056002;27;20450;-83
2023/03/06 06:19:19;;;;;;;12.93;7.70;;;7.70;50.00;;;;;;5059089;27;20824;-83
2023/03/06 06:21:47;;;;;;;14.50;7.80;;;7.60;50.80;;;;;;5095857;27;20565;-84
2023/03/06 06:24:18;;;;;;;15.43;7.80;;;7.70;50.30;;;;;;5069140;27;20533;-84
2023/03/06 06:26:45;;;;;;;16.63;7.37;;;7.60;51.00;;;;;;5077393;27;20447;-83
2023/03/06 06:29:13;;;;;;;17.50;8.00;;;7.80;50.80;;;;;;5092555;27;20884;-84
2023/03/06 06:31:40;;;;;;;14.10;8.17;;;7.90;50.70;;;;;;5087943;27;20546;-83
2023/03/06 06:34:09;;;;;;;13.37;7.57;;;8.20;50.20;;;;;;5089730;27;20793;-83
2023/03/06 06:36:36;;;;;;;41.87;18.10;;;7.90;50.10;;;;;;5071674;27;20453;-83
2023/03/06 06:39:04;;;;;;;31.63;13.63;;;7.90;50.50;;;;;;5073600;27;20513;-84
2023/03/06 06:41:33;;;;;;;18.80;11.13;;;8.10;50.10;;;;;;5062892;27;20986;-84
2023/03/06 06:44:00;;;;;;;23.07;12.27;;;8.10;49.80;;;;;;5071714;27;20458;-84
2023/03/06 06:46:28;;;;;;;14.17;9.27;;;8.20;50.60;;;;;;5072490;27;20510;-84
2023/03/06 06:48:55;;;;;;;18.30;8.30;;;8.40;50.50;;;;;;5064287;27;20451;-85
2023/03/06 06:51:22;;;;;;;11.20;7.43;;;8.40;50.00;;;;;;5080088;27;20457;-85
2023/03/06 06:53:52;;;;;;;9.80;6.73;;;8.40;50.50;;;;;;5088106;27;21017;-83
2023/03/06 06:56:18;;;;;;;12.73;7.37;;;8.50;50.60;;;;;;5106509;27;20443;-84
2023/03/06 06:58:47;;;;;;;14.90;7.80;;;8.50;51.30;;;;;;5072224;27;20978;-85
2023/03/06 07:01:14;;;;;;;16.47;7.80;;;8.60;51.30;;;;;;5074740;27;20859;-85
2023/03/06 07:03:41;;;;;;;18.40;9.60;;;8.60;51.50;;;;;;5089124;28;20481;-84
2023/03/06 07:06:08;;;;;;;15.80;8.67;;;8.60;51.70;;;;;;5074443;27;20501;-84
2023/03/06 07:08:36;;;;;;;13.10;8.73;;;8.70;51.40;;;;;;5061776;27;20535;-84
2023/03/06 07:11:07;;;;;;;15.23;8.43;;;8.80;51.60;;;;;;5101986;27;20457;-85
2023/03/06 07:13:34;;;;;;;13.87;8.60;;;8.80;51.80;;;;;;5077094;27;20457;-84
2023/03/06 07:16:02;;;;;;;14.77;7.30;;;8.80;51.10;;;;;;5055365;27;20838;-84
2023/03/06 07:18:30;;;;;;;11.53;6.40;;;8.70;52.00;;;;;;5064069;27;20705;-85
2023/03/06 07:20:57;;;;;;;13.17;6.07;;;8.70;51.40;;;;;;5070910;27;20452;-85
2023/03/06 07:23:25;;;;;;;10.53;5.80;;;8.70;51.30;;;;;;5080760;27;20478;-84
2023/03/06 07:25:52;;;;;;;13.53;6.20;;;8.60;51.80;;;;;;5085605;27;20449;-85
2023/03/06 07:28:20;;;;;;;10.57;7.67;;;8.60;51.70;;;;;;5074893;28;20451;-85
2023/03/06 07:30:47;;;;;;;18.10;8.10;;;8.40;52.40;;;;;;5072681;27;20443;-84
2023/03/06 07:33:16;;;;;;;14.10;6.37;;;8.20;52.60;;;;;;5086745;27;20467;-84
2023/03/06 07:35:43;;;;;;;16.23;6.80;;;8.20;52.90;;;;;;5085535;27;20542;-84
2023/03/06 07:38:11;;;;;;;18.80;7.90;;;8.30;53.60;;;;;;5089093;28;20498;-85
2023/03/06 07:40:39;;;;;;;9.43;6.10;;;8.20;53.00;;;;;;5053647;27;20987;-84
2023/03/06 07:43:07;;;;;;;11.67;6.97;;;8.20;52.90;;;;;;5063980;28;20506;-85
2023/03/06 07:45:40;;;;;;;10.60;7.00;;;8.40;53.10;;;;;;5069374;28;20888;-85
2023/03/06 07:48:07;;;;;;;15.37;8.27;;;8.50;52.90;;;;;;5072055;28;20438;-85
2023/03/06 07:50:35;;;;;;;11.43;6.83;;;8.60;52.90;;;;;;5073084;28;20442;-85
2023/03/06 07:53:02;;;;;;;11.43;6.17;;;8.80;52.90;;;;;;5080373;28;20494;-84
2023/03/06 07:55:29;;;;;;;15.27;8.97;;;8.70;52.90;;;;;;5056524;28;20458;-85
2023/03/06 07:57:56;;;;;;;13.00;7.77;;;8.70;52.20;;;;;;5061457;28;20449;-84
2023/03/06 08:00:24;;;;;;;14.57;8.80;;;8.80;52.60;;;;;;5087597;28;20797;-85
2023/03/06 08:02:51;;;;;;;13.47;8.00;;;9.00;52.70;;;;;;5076381;28;20482;-84
2023/03/06 08:05:18;;;;;;;15.70;7.70;;;9.00;52.20;;;;;;5072734;28;20443;-84
2023/03/06 08:07:46;;;;;;;13.03;7.00;;;9.10;52.10;;;;;;5054644;28;20952;-85
2023/03/06 08:10:15;;;;;;;12.73;7.20;;;9.00;51.70;;;;;;5066924;28;20443;-84
2023/03/06 08:12:42;;;;;;;13.07;7.00;;;8.80;52.70;;;;;;5079665;28;20478;-84
2023/03/06 08:15:10;;;;;;;14.30;7.83;;;8.80;52.70;;;;;;5079072;27;20463;-85
2023/03/06 08:17:37;;;;;;;18.33;8.47;;;8.90;52.50;;;;;;5061993;28;20443;-84
2023/03/06 08:20:06;;;;;;;13.63;6.90;;;8.80;52.10;;;;;;5081345;28;20474;-85
2023/03/06 08:22:34;;;;;;;19.03;9.87;;;8.90;52.50;;;;;;5073617;28;20887;-85
2023/03/06 08:25:03;;;;;;;12.43;8.30;;;8.80;52.20;;;;;;5057934;28;20434;-85
2023/03/06 08:27:31;;;;;;;16.10;8.70;;;8.70;52.60;;;;;;5060164;28;20505;-85
2023/03/06 08:29:58;;;;;;;14.70;9.10;;;8.70;53.00;;;;;;5089683;28;21777;-85
2023/03/06 08:32:25;;;;;;;21.60;9.07;;;8.80;52.70;;;;;;5082903;28;20458;-86
2023/03/06 08:34:52;;;;;;;16.90;8.40;;;8.70;52.30;;;;;;5089346;28;21171;-85
2023/03/06 08:37:19;;;;;;;13.53;7.97;;;8.60;52.90;;;;;;5093709;28;20453;-85
2023/03/06 08:39:46;;;;;;;15.20;8.83;;;8.30;53.50;;;;;;5081271;27;20608;-86
2023/03/06 08:42:14;;;;;;;16.93;9.20;;;8.40;54.20;;;;;;5068219;27;20470;-85
2023/03/06 08:44:42;;;;;;;15.70;8.63;;;8.50;54.40;;;;;;5085595;27;20457;-84
2023/03/06 08:47:09;;;;;;;20.17;9.73;;;8.60;53.90;;;;;;5069343;27;20507;-85
2023/03/06 08:49:38;;;;;;;19.13;8.53;;;8.70;53.60;;;;;;5079512;27;20460;-85
2023/03/06 08:52:06;;;;;;;20.67;7.90;;;8.70;53.60;;;;;;5081091;27;20484;-85
2023/03/06 08:54:34;;;;;;;14.30;9.17;;;8.60;54.00;;;;;;5068075;27;20454;-85
2023/03/06 08:57:01;;;;;;;24.33;13.90;;;8.50;54.50;;;;;;5097363;27;20837;-84
2023/03/06 08:59:29;;;;;;;15.70;8.60;;;8.50;54.50;;;;;;5060699;27;20461;-84
2023/03/06 09:01:56;;;;;;;17.53;9.50;;;8.50;54.00;;;;;;5080608;27;20473;-83
2023/03/06 09:04:23;;;;;;;16.50;9.57;;;8.60;54.00;;;;;;5084452;27;20450;-85
2023/03/06 09:06:50;;;;;;;16.63;8.57;;;8.70;53.80;;;;;;5073767;27;20458;-84
2023/03/06 09:09:17;;;;;;;22.23;9.23;;;8.70;54.40;;;;;;5059048;27;20460;-84
2023/03/06 09:11:44;;;;;;;15.60;7.90;;;8.90;53.70;;;;;;5105343;27;20476;-84
2023/03/06 09:14:11;;;;;;;12.10;8.27;;;9.10;53.40;;;;;;5073381;27;20829;-85
2023/03/06 09:16:39;;;;;;;15.40;8.70;;;8.70;53.30;;;;;;5082536;27;20946;-84
2023/03/06 09:19:06;;;;;;;18.30;9.43;;;8.80;54.00;;;;;;5074150;27;20452;-84
2023/03/06 09:21:33;;;;;;;13.70;8.53;;;8.90;54.30;;;;;;5076005;27;21401;-84
2023/03/06 09:24:00;;;;;;;13.87;9.20;;;9.00;52.60;;;;;;5072817;27;20446;-85
2023/03/06 09:26:27;;;;;;;21.53;13.10;;;8.80;53.20;;;;;;5092713;27;20451;-85
2023/03/06 09:28:54;;;;;;;13.77;8.63;;;8.70;53.60;;;;;;5073923;27;20455;-84
2023/03/06 09:31:21;;;;;;;18.03;10.17;;;9.00;53.90;;;;;;5073971;27;20453;-85
2023/03/06 09:33:50;;;;;;;13.53;8.70;;;9.00;52.40;;;;;;5076015;27;20554;-85
2023/03/06 09:36:19;;;;;;;13.77;8.07;;;8.90;52.70;;;;;;5074662;27;20462;-84
2023/03/06 09:38:47;;;;;;;19.57;8.67;;;8.80;53.50;;;;;;5065067;27;20445;-85
2023/03/06 09:41:28;;;;;;;15.70;9.53;;;8.80;52.70;;;;;;5077135;27;20462;-85
2023/03/06 09:44:03;;;;;;;16.77;9.10;;;8.50;52.60;;;;;;5090104;27;20442;-86
2023/03/06 09:46:44;;;;;;;12.47;7.67;;;8.40;53.50;;;;;;5076513;27;20541;-86
2023/03/06 09:49:50;;;;;;;14.07;8.43;;;8.50;52.90;;;;;;5091116;27;21818;-85
2023/03/06 09:52:31;;;;;;;18.73;12.80;;;8.70;52.60;;;;;;5031520;27;20473;-86
2023/03/06 09:55:09;;;;;;;13.30;8.77;;;8.90;52.60;;;;;;5062951;27;20442;-86
2023/03/06 09:57:38;;;;;;;16.53;10.10;;;8.80;51.50;;;;;;5090908;27;21064;-85
2023/03/06 10:00:11;;;;;;;17.70;9.47;;;8.70;52.90;;;;;;5077580;27;20554;-84
2023/03/06 10:02:41;;;;;;;18.23;11.97;;;8.90;53.50;;;;;;5077985;27;20475;-85
2023/03/06 10:05:15;;;;;;;14.57;9.53;;;9.00;53.00;;;;;;5075311;27;20439;-84
2023/03/06 10:07:45;;;;;;;14.10;8.90;;;8.90;53.70;;;;;;5060318;27;20473;-85
2023/03/06 10:10:19;;;;;;;14.37;9.27;;;9.10;52.90;;;;;;5080777;27;20431;-84
2023/03/06 10:12:53;;;;;;;17.43;9.90;;;9.20;53.00;;;;;;5081349;27;20474;-85
2023/03/06 10:15:25;;;;;;;16.87;9.60;;;9.20;52.60;;;;;;5078128;27;20465;-85
2023/03/06 10:17:52;;;;;;;21.90;10.40;;;9.20;52.60;;;;;;5060795;27;20453;-85
2023/03/06 10:20:23;;;;;;;16.70;9.30;;;9.20;52.00;;;;;;5065985;27;20830;-85
2023/03/06 10:23:19;;;;;;;20.87;10.20;;;9.10;52.00;;;;;;5093181;27;20499;-84
2023/03/06 10:25:53;;;;;;;15.80;11.23;;;9.10;51.20;;;;;;5055799;27;21258;-84
2023/03/06 10:28:28;;;;;;;13.37;8.40;;;9.20;51.30;;;;;;5067299;27;20454;-84
2023/03/06 10:31:02;;;;;;;20.30;9.73;;;9.10;50.60;;;;;;5072803;27;20442;-84
2023/03/06 10:33:39;;;;;;;17.33;9.33;;;9.00;51.20;;;;;;5093561;27;20469;-84
2023/03/06 10:36:13;;;;;;;17.30;10.30;;;9.00;51.60;;;;;;5089540;27;20979;-84
2023/03/06 10:38:42;;;;;;;22.60;10.10;;;9.10;51.80;;;;;;5058974;27;20507;-84
2023/03/06 10:41:23;;;;;;;14.07;9.27;;;9.30;51.60;;;;;;5077197;27;20498;-84
2023/03/06 10:44:20;;;;;;;23.70;14.27;;;9.40;51.20;;;;;;5088029;27;20535;-84
2023/03/06 10:46:50;;;;;;;13.30;7.73;;;9.60;51.30;;;;;;5057874;27;21062;-84
2023/03/06 10:49:30;;;;;;;65.97;35.10;;;9.40;50.60;;;;;;5069230;27;20469;-84
2023/03/06 10:52:01;;;;;;;17.63;10.00;;;9.30;50.50;;;;;;5090805;27;20466;-84
2023/03/06 10:54:29;;;;;;;17.47;9.40;;;9.40;50.70;;;;;;5084720;27;20459;-84
2023/03/06 10:56:56;;;;;;;18.10;8.93;;;9.40;50.10;;;;;;5089337;27;20443;-84
2023/03/06 10:59:27;;;;;;;15.23;8.13;;;9.50;50.20;;;;;;5057027;28;20443;-84
2023/03/06 11:01:56;;;;;;;15.93;9.00;;;9.70;49.60;;;;;;5071524;27;20474;-84
2023/03/06 11:04:26;;;;;;;16.93;8.57;;;9.80;49.40;;;;;;5091132;27;21162;-83
2023/03/06 11:07:15;;;;;;;18.20;8.43;;;9.80;48.10;;;;;;5080432;27;20442;-84
2023/03/06 11:09:43;;;;;;;15.00;8.50;;;9.70;47.90;;;;;;5093535;27;20458;-84
2023/03/06 11:12:21;;;;;;;15.87;8.20;;;9.60;48.00;;;;;;5082673;28;20471;-85
2023/03/06 11:15:06;;;;;;;14.87;7.70;;;9.60;48.40;;;;;;5058972;27;20440;-85
2023/03/06 11:17:35;;;;;;;15.50;8.47;;;9.60;48.10;;;;;;5111818;27;20449;-86
2023/03/06 11:20:19;;;;;;;13.80;9.03;;;9.40;48.20;;;;;;5070981;27;20462;-85
2023/03/06 11:22:50;;;;;;;16.80;8.90;;;9.40;48.60;;;;;;5073446;27;20500;-85
2023/03/06 11:25:20;;;;;;;13.80;7.97;;;9.70;48.30;;;;;;5082512;27;20450;-85
2023/03/06 11:27:55;;;;;;;16.80;9.67;;;9.70;48.10;;;;;;5064694;28;20455;-85
2023/03/06 11:30:26;;;;;;;14.03;7.60;;;9.70;47.10;;;;;;5065850;28;20967;-85
2023/03/06 11:32:57;;;;;;;14.27;8.00;;;9.90;47.20;;;;;;5064366;27;20473;-86
2023/03/06 11:35:27;;;;;;;17.50;9.23;;;9.90;45.40;;;;;;5057640;28;20450;-84
2023/03/06 11:37:59;;;;;;;20.30;10.73;;;9.70;46.00;;;;;;5090028;28;20446;-84
2023/03/06 11:40:32;;;;;;;14.90;7.97;;;9.70;46.20;;;;;;5088237;28;20466;-84
2023/03/06 11:43:06;;;;;;;14.63;8.77;;;9.80;46.50;;;;;;5086630;27;20477;-84
2023/03/06 11:45:42;;;;;;;12.90;7.53;;;9.80;45.90;;;;;;5072370;27;20493;-85
2023/03/06 11:48:22;;;;;;;17.00;9.10;;;9.80;46.60;;;;;;5056472;27;20978;-84
2023/03/06 11:50:51;;;;;;;16.03;7.97;;;10.10;45.60;;;;;;5069267;28;20522;-85
2023/03/06 11:53:22;;;;;;;15.47;7.97;;;10.10;44.10;;;;;;5065405;28;20551;-85
2023/03/06 11:55:59;;;;;;;16.40;9.23;;;10.00;44.50;;;;;;5062973;28;20462;-85
2023/03/06 11:59:02;;;;;;;14.90;8.63;;;10.00;44.60;;;;;;5088249;27;20434;-84
2023/03/06 12:01:34;;;;;;;16.80;8.77;;;10.20;44.60;;;;;;5064210;28;20466;-83
2023/03/06 12:04:29;;;;;;;14.00;8.67;;;10.40;44.40;;;;;;5087227;28;20855;-82
2023/03/06 12:07:04;;;;;;;15.07;9.63;;;10.20;43.00;;;;;;5069481;28;20454;-85
2023/03/06 12:09:43;;;;;;;12.30;6.87;;;10.10;43.70;;;;;;5063367;28;20458;-84
2023/03/06 12:12:30;;;;;;;9.87;6.47;;;9.70;43.30;;;;;;5085308;28;20486;-85
2023/03/06 12:15:14;;;;;;;11.80;8.50;;;9.90;45.20;;;;;;5071222;27;20446;-84
2023/03/06 12:17:56;;;;;;;12.97;7.93;;;9.90;43.80;;;;;;5080325;27;20493;-84
2023/03/06 12:20:39;;;;;;;11.27;7.03;;;9.90;43.10;;;;;;5077133;27;20845;-85
2023/03/06 12:23:18;;;;;;;13.07;8.30;;;9.70;42.50;;;;;;5109620;27;21985;-85
2023/03/06 12:25:52;;;;;;;11.50;7.40;;;9.80;43.00;;;;;;5060568;27;20488;-84
2023/03/06 12:28:38;;;;;;;12.40;6.53;;;9.70;43.00;;;;;;5092187;27;20536;-83
2023/03/06 12:31:27;;;;;;;13.23;8.27;;;10.10;42.30;;;;;;5097812;27;20451;-85
2023/03/06 12:34:13;;;;;;;15.37;7.67;;;10.40;41.60;;;;;;5066218;27;20438;-84
2023/03/06 12:36:54;;;;;;;15.17;7.70;;;10.60;41.20;;;;;;5080840;27;20443;-85
2023/03/06 12:39:33;;;;;;;18.73;9.40;;;10.70;41.30;;;;;;5060425;27;21133;-84
2023/03/06 12:42:23;;;;;;;16.87;9.03;;;10.90;41.30;;;;;;5064796;27;20476;-84
2023/03/06 12:45:10;;;;;;;16.53;7.47;;;11.10;41.60;;;;;;5066257;27;20766;-84
2023/03/06 12:47:42;;;;;;;14.60;8.17;;;11.00;40.00;;;;;;5066681;27;20461;-85
2023/03/06 12:50:18;;;;;;;12.87;7.17;;;11.10;41.10;;;;;;5106341;27;20451;-85
2023/03/06 12:52:47;;;;;;;18.43;7.73;;;11.30;40.70;;;;;;5075049;27;20470;-84
2023/03/06 12:55:17;;;;;;;17.77;9.60;;;11.00;39.30;;;;;;5099990;27;20447;-84
2023/03/06 12:57:47;;;;;;;14.60;8.53;;;10.20;40.40;;;;;;5101539;27;20434;-85
2023/03/06 13:00:47;;;;;;;17.33;7.00;;;9.90;43.30;;;;;;5065875;27;20507;-85
2023/03/06 13:03:18;;;;;;;10.60;6.77;;;10.00;43.40;;;;;;5055625;27;20998;-85